Time;durP1;ratioP1;P1;durP2;ratioP2;P2;SDS_P1;SDS_P2;PMS_P1;PMS_P2;Temp;Humidity;BMP_temperature;BMP_pressure;BME280_temperature;BME280_humidity;BME280_pressure;Samples;Min_cycle;Max_cycle;Signal;HPM_P1;HPM_P2
2021/08/06 00:00:35;;;;;;;9.85;6.32;;;;;;;15.40;53.22;100432.88;5014002;28;20489;-70
2021/08/06 00:03:01;;;;;;;8.18;5.90;;;;;;;15.55;52.59;100429.19;5014051;28;20428;-66
2021/08/06 00:05:27;;;;;;;9.82;6.85;;;;;;;15.67;52.39;100427.50;5014763;28;20038;-66
2021/08/06 00:07:53;;;;;;;7.57;6.63;;;;;;;15.50;52.91;100423.38;5014391;28;20033;-66
2021/08/06 00:10:18;;;;;;;10.02;6.53;;;;;;;15.56;52.60;100419.50;5014318;28;20418;-67
2021/08/06 00:12:44;;;;;;;6.95;5.95;;;;;;;15.53;52.86;100410.03;5013152;28;20049;-68
2021/08/06 00:15:10;;;;;;;8.32;7.00;;;;;;;15.60;52.68;100413.06;5016560;28;20061;-67
2021/08/06 00:17:35;;;;;;;6.68;6.07;;;;;;;15.55;52.46;100420.44;5014788;28;20227;-66
2021/08/06 00:20:01;;;;;;;8.13;6.28;;;;;;;15.48;52.83;100404.22;5013558;28;20041;-67
2021/08/06 00:22:26;;;;;;;8.10;7.30;;;;;;;15.41;52.98;100405.56;5011810;28;20040;-67
2021/08/06 00:24:52;;;;;;;9.73;6.75;;;;;;;15.56;52.28;100403.69;5012269;28;20486;-67
2021/08/06 00:27:17;;;;;;;7.07;6.47;;;;;;;15.51;52.43;100409.28;5010408;28;20617;-66
2021/08/06 00:29:43;;;;;;;8.93;7.30;;;;;;;15.29;52.78;100398.53;5015637;28;20041;-68
2021/08/06 00:32:08;;;;;;;7.35;6.35;;;;;;;15.36;52.73;100394.50;5013543;28;20164;-67
2021/08/06 00:34:36;;;;;;;7.50;6.80;;;;;;;15.33;52.73;100397.38;5021619;28;20034;-68
2021/08/06 00:37:02;;;;;;;9.57;7.32;;;;;;;15.23;52.90;100396.28;5015793;28;20026;-66
2021/08/06 00:39:32;;;;;;;10.25;8.02;;;;;;;15.13;53.28;100399.50;5015146;28;20072;-67
2021/08/06 00:41:57;;;;;;;11.48;7.15;;;;;;;15.17;53.17;100398.38;5027654;28;20021;-70
2021/08/06 00:44:24;;;;;;;12.00;8.10;;;;;;;15.09;53.29;100398.03;5027194;28;20390;-66
2021/08/06 00:46:50;;;;;;;16.90;8.82;;;;;;;14.90;53.85;100398.41;5012455;28;20025;-66
2021/08/06 00:49:18;;;;;;;11.05;8.15;;;;;;;15.06;53.23;100398.25;5010804;28;20096;-69
2021/08/06 00:51:49;;;;;;;9.48;7.75;;;;;;;14.90;53.51;100392.28;4995335;28;20505;-65
2021/08/06 00:54:17;;;;;;;10.45;8.77;;;;;;;14.98;53.26;100387.38;5010893;28;20041;-67
2021/08/06 00:56:53;;;;;;;8.35;7.55;;;;;;;14.89;53.62;100395.88;5004191;28;20061;-68
2021/08/06 00:59:19;;;;;;;12.23;8.75;;;;;;;14.87;53.58;100397.75;5009501;28;20565;-68
2021/08/06 01:01:52;;;;;;;9.77;7.70;;;;;;;14.81;53.96;100398.16;5009282;28;20053;-67
2021/08/06 01:04:29;;;;;;;10.20;8.50;;;;;;;14.61;54.21;100397.66;5012794;28;20358;-68
2021/08/06 01:07:09;;;;;;;12.75;8.82;;;;;;;14.62;54.28;100388.00;5013148;28;20033;-66
2021/08/06 01:09:43;;;;;;;8.27;7.47;;;;;;;14.61;54.48;100389.75;5027045;28;20042;-66
2021/08/06 01:12:24;;;;;;;11.65;8.82;;;;;;;14.64;54.37;100381.69;5026773;28;20041;-66
2021/08/06 01:14:50;;;;;;;10.10;8.73;;;;;;;14.56;54.46;100379.53;5012880;28;20025;-69
2021/08/06 01:17:25;;;;;;;13.80;9.32;;;;;;;14.54;54.58;100385.84;5010650;28;20037;-67
2021/08/06 01:19:56;;;;;;;9.90;8.48;;;;;;;14.48;54.99;100375.75;5010076;28;20048;-67
2021/08/06 01:23:03;;;;;;;11.90;8.60;;;;;;;14.41;54.94;100377.06;4995601;28;20022;-66
2021/08/06 01:25:58;;;;;;;10.07;8.18;;;;;;;14.47;54.78;100381.94;5015475;28;20304;-67
2021/08/06 01:28:46;;;;;;;13.18;9.05;;;;;;;14.41;54.75;100387.59;5012108;28;20521;-68
2021/08/06 01:31:14;;;;;;;10.45;8.55;;;;;;;14.31;55.18;100388.13;5012540;28;20041;-66
2021/08/06 01:33:44;;;;;;;15.82;9.15;;;;;;;14.38;55.04;100375.44;5027917;28;20122;-66
2021/08/06 01:36:17;;;;;;;9.95;8.77;;;;;;;14.51;54.50;100372.91;5012746;28;20094;-65
2021/08/06 01:38:44;;;;;;;11.25;9.43;;;;;;;14.54;54.34;100370.06;5012330;28;20041;-69
2021/08/06 01:41:22;;;;;;;9.73;8.75;;;;;;;14.46;54.72;100375.84;5010456;28;20040;-66
2021/08/06 01:44:17;;;;;;;10.40;8.48;;;;;;;14.35;54.91;100368.59;5011791;28;20068;-67
2021/08/06 01:46:55;;;;;;;13.55;8.65;;;;;;;14.13;55.40;100365.66;5010750;28;20048;-68
2021/08/06 01:49:33;;;;;;;10.82;9.38;;;;;;;14.28;55.02;100367.31;5026786;28;20036;-67
2021/08/06 01:52:06;;;;;;;10.55;9.05;;;;;;;14.26;54.94;100363.94;5010663;28;20384;-66
2021/08/06 01:54:33;;;;;;;10.82;9.13;;;;;;;14.25;54.92;100359.59;5011100;28;20042;-67
2021/08/06 01:57:02;;;;;;;12.63;8.95;;;;;;;14.32;54.63;100368.81;5017014;28;20040;-67
2021/08/06 01:59:29;;;;;;;12.20;9.55;;;;;;;14.27;54.90;100359.53;5018174;28;20064;-66
2021/08/06 02:01:58;;;;;;;12.07;8.43;;;;;;;14.25;54.81;100358.78;5018109;28;20112;-67
2021/08/06 02:04:25;;;;;;;13.35;9.32;;;;;;;14.07;55.27;100350.28;5010894;28;20029;-67
2021/08/06 02:07:02;;;;;;;12.07;9.23;;;;;;;14.24;54.81;100357.94;5018440;28;20048;-66
2021/08/06 02:09:31;;;;;;;10.48;8.77;;;;;;;14.24;54.59;100357.94;5020520;28;20037;-67
2021/08/06 02:11:56;;;;;;;13.35;10.23;;;;;;;14.10;55.11;100355.34;5012895;28;20030;-66
2021/08/06 02:14:37;;;;;;;11.00;9.55;;;;;;;14.04;55.00;100355.72;5030067;28;20048;-68
2021/08/06 02:17:03;;;;;;;9.85;8.68;;;;;;;14.00;54.98;100351.59;5009638;28;20446;-67
2021/08/06 02:19:39;;;;;;;9.95;8.88;;;;;;;14.00;55.02;100348.97;5011984;28;20614;-67
2021/08/06 02:22:12;;;;;;;10.30;8.60;;;;;;;13.93;55.23;100344.09;5010911;28;20043;-68
2021/08/06 02:24:42;;;;;;;10.98;9.40;;;;;;;13.96;54.85;100342.22;5029666;28;20765;-68
2021/08/06 02:27:14;;;;;;;13.02;9.88;;;;;;;13.82;55.23;100341.28;5013275;28;20414;-67
2021/08/06 02:29:42;;;;;;;12.93;9.20;;;;;;;13.86;55.43;100341.97;5012698;28;20030;-67
2021/08/06 02:32:11;;;;;;;15.60;9.48;;;;;;;13.85;55.31;100335.00;5009292;28;20387;-66
2021/08/06 02:34:38;;;;;;;12.50;10.93;;;;;;;13.78;55.41;100333.72;5015684;28;20061;-67
2021/08/06 02:37:04;;;;;;;16.02;9.57;;;;;;;13.79;55.32;100325.75;5017562;28;20041;-66
2021/08/06 02:39:31;;;;;;;14.95;10.35;;;;;;;13.61;55.73;100326.88;5015068;28;20125;-67
2021/08/06 02:41:59;;;;;;;14.85;10.57;;;;;;;13.80;55.40;100324.78;5011582;28;20113;-66
2021/08/06 02:44:25;;;;;;;15.50;9.60;;;;;;;13.84;55.23;100325.44;5027606;28;20034;-66
2021/08/06 02:46:52;;;;;;;13.73;9.93;;;;;;;13.85;54.93;100321.88;5012012;28;20021;-69
2021/08/06 02:49:18;;;;;;;15.43;10.55;;;;;;;13.79;55.08;100315.22;5013075;28;20037;-66
2021/08/06 02:51:43;;;;;;;14.38;10.55;;;;;;;13.71;55.33;100313.06;5011470;28;20289;-66
2021/08/06 02:54:09;;;;;;;16.08;11.10;;;;;;;13.55;55.88;100306.22;5026842;28;20053;-67
2021/08/06 02:56:36;;;;;;;19.77;11.10;;;;;;;13.39;56.36;100307.16;5016008;28;20065;-66
2021/08/06 02:59:03;;;;;;;14.57;11.82;;;;;;;13.42;56.38;100306.97;5017930;28;20092;-66
2021/08/06 03:01:30;;;;;;;16.80;11.07;;;;;;;13.42;56.09;100301.69;5028001;28;20029;-67
2021/08/06 03:03:57;;;;;;;14.95;11.10;;;;;;;13.44;56.18;100293.75;5028175;28;20029;-65
2021/08/06 03:06:24;;;;;;;16.10;11.27;;;;;;;13.20;56.92;100288.19;5021794;28;20045;-68
2021/08/06 03:08:50;;;;;;;15.90;11.98;;;;;;;13.11;56.82;100282.56;5031331;28;20037;-69
2021/08/06 03:11:19;;;;;;;13.93;10.85;;;;;;;13.29;56.79;100285.03;5029286;28;20479;-68
2021/08/06 03:13:44;;;;;;;17.55;12.38;;;;;;;13.27;56.65;100286.88;5035835;28;20041;-66
2021/08/06 03:16:10;;;;;;;14.00;10.45;;;;;;;13.35;56.31;100287.28;5020901;28;20033;-66
2021/08/06 03:18:37;;;;;;;13.80;11.38;;;;;;;13.37;56.19;100289.81;5029217;28;20456;-66
2021/08/06 03:21:03;;;;;;;17.48;12.43;;;;;;;13.19;56.66;100286.53;5030550;28;20033;-69
2021/08/06 03:23:32;;;;;;;16.00;11.55;;;;;;;13.23;56.63;100283.63;5035129;28;20478;-66
2021/08/06 03:25:57;;;;;;;14.27;11.73;;;;;;;13.44;55.93;100280.63;5034821;28;20053;-66
2021/08/06 03:28:24;;;;;;;16.42;10.80;;;;;;;13.38;56.09;100284.44;5030377;28;20099;-68
2021/08/06 03:30:49;;;;;;;13.82;11.05;;;;;;;13.28;56.59;100291.22;5016867;28;20112;-69
2021/08/06 03:33:16;;;;;;;18.27;11.90;;;;;;;13.31;56.03;100286.59;5025596;28;20033;-67
2021/08/06 03:35:41;;;;;;;14.98;12.25;;;;;;;13.35;56.11;100286.44;5015215;28;20026;-66
2021/08/06 03:38:14;;;;;;;17.13;11.75;;;;;;;13.42;55.94;100280.72;5032285;28;20033;-70
2021/08/06 03:40:40;;;;;;;15.23;10.82;;;;;;;13.35;56.16;100278.56;5003467;28;20026;-68
2021/08/06 03:43:08;;;;;;;16.63;12.15;;;;;;;13.40;55.93;100277.31;5030292;28;20521;-68
2021/08/06 03:45:33;;;;;;;16.50;11.80;;;;;;;13.48;56.04;100284.75;5022627;28;20029;-67
2021/08/06 03:47:59;;;;;;;18.02;11.18;;;;;;;13.47;55.82;100294.41;5031807;28;20120;-69
2021/08/06 03:50:24;;;;;;;14.60;10.70;;;;;;;13.40;56.27;100302.75;5031257;28;20034;-66
2021/08/06 03:52:50;;;;;;;25.70;11.70;;;;;;;13.43;56.22;100303.41;5030888;28;20033;-68
2021/08/06 03:55:15;;;;;;;17.20;11.05;;;;;;;13.32;56.38;100296.19;5012764;28;20132;-68
2021/08/06 03:57:51;;;;;;;16.02;12.15;;;;;;;13.45;55.89;100300.66;5017747;28;20553;-68
2021/08/06 04:00:18;;;;;;;15.07;10.90;;;;;;;13.42;56.05;100293.84;5030801;28;20033;-68
2021/08/06 04:02:45;;;;;;;17.67;12.27;;;;;;;13.38;56.02;100286.25;5027772;28;20025;-68
2021/08/06 04:05:11;;;;;;;15.00;11.10;;;;;;;13.44;55.93;100284.09;5051909;28;20064;-69
2021/08/06 04:07:42;;;;;;;15.95;12.48;;;;;;;13.36;56.06;100286.34;5051712;28;20045;-67
2021/08/06 04:10:09;;;;;;;15.07;11.38;;;;;;;13.43;56.05;100276.28;5020685;28;20040;-67
2021/08/06 04:12:35;;;;;;;14.90;11.23;;;;;;;13.34;55.98;100272.47;5029751;28;20038;-66
2021/08/06 04:15:01;;;;;;;17.15;12.98;;;;;;;13.32;56.52;100276.97;5017143;28;20052;-69
2021/08/06 04:17:27;;;;;;;17.98;11.77;;;;;;;13.12;56.85;100272.94;5022076;28;20029;-65
2021/08/06 04:19:52;;;;;;;16.90;11.40;;;;;;;13.14;56.82;100280.69;5032351;28;20030;-67
2021/08/06 04:22:18;;;;;;;13.45;11.05;;;;;;;13.03;57.28;100276.94;5014145;28;20033;-68
2021/08/06 04:24:43;;;;;;;15.38;11.13;;;;;;;13.08;57.07;100271.44;5013083;28;20509;-66
2021/08/06 04:27:09;;;;;;;13.38;10.77;;;;;;;13.02;57.20;100269.16;5016195;28;20041;-66
2021/08/06 04:29:35;;;;;;;15.43;11.43;;;;;;;13.06;57.01;100268.88;5015972;28;20065;-67
2021/08/06 04:32:00;;;;;;;19.65;11.18;;;;;;;13.05;57.29;100266.38;5015705;28;20028;-68
2021/08/06 04:34:25;;;;;;;13.95;11.00;;;;;;;12.91;57.66;100259.31;5017569;28;20067;-67
2021/08/06 04:36:53;;;;;;;14.82;11.02;;;;;;;12.99;57.27;100257.06;5014993;28;20402;-67
2021/08/06 04:39:20;;;;;;;17.60;11.40;;;;;;;13.17;57.08;100257.75;5028409;28;20044;-68
2021/08/06 04:41:46;;;;;;;20.02;11.35;;;;;;;13.29;56.58;100253.53;5017437;28;20064;-67
2021/08/06 04:44:11;;;;;;;15.13;10.68;;;;;;;13.22;56.83;100267.97;5020917;28;20085;-67
2021/08/06 04:46:37;;;;;;;12.93;10.90;;;;;;;13.32;56.63;100250.72;5012035;28;20188;-65
2021/08/06 04:49:03;;;;;;;14.63;10.45;;;;;;;13.33;56.67;100244.53;5013655;28;20134;-67
2021/08/06 04:51:29;;;;;;;12.65;10.38;;;;;;;13.42;56.18;100254.47;5013232;28;20687;-67
2021/08/06 04:53:55;;;;;;;19.42;11.18;;;;;;;13.69;55.89;100261.59;5014227;28;20102;-67
2021/08/06 04:56:21;;;;;;;15.05;11.00;;;;;;;13.76;55.55;100262.88;5015222;28;20057;-66
2021/08/06 04:58:46;;;;;;;15.20;10.52;;;;;;;13.74;55.88;100262.13;5030567;28;20068;-66
2021/08/06 05:01:12;;;;;;;15.88;11.73;;;;;;;13.73;55.69;100253.41;5013293;28;20120;-66
2021/08/06 05:03:38;;;;;;;15.98;11.27;;;;;;;13.70;55.85;100261.50;5013894;28;20030;-66
2021/08/06 05:06:04;;;;;;;11.10;9.90;;;;;;;13.80;55.31;100251.25;5028318;28;20521;-66
2021/08/06 05:08:31;;;;;;;14.73;11.20;;;;;;;13.62;55.72;100249.78;5020568;28;20521;-68
2021/08/06 05:10:57;;;;;;;19.58;10.95;;;;;;;13.89;54.58;100242.78;5027630;28;20025;-66
2021/08/06 05:13:23;;;;;;;14.80;10.10;;;;;;;14.40;54.37;100230.75;5017904;28;20539;-66
2021/08/06 05:15:50;;;;;;;14.60;10.55;;;;;;;14.58;53.38;100239.25;5028886;28;20458;-67
2021/08/06 05:18:16;;;;;;;17.73;10.82;;;;;;;14.39;53.40;100229.94;5028054;28;20044;-68
2021/08/06 05:20:42;;;;;;;14.23;10.23;;;;;;;14.29;53.96;100228.84;5010893;28;20093;-67
2021/08/06 05:23:08;;;;;;;15.15;9.82;;;;;;;14.23;54.12;100224.84;5014247;28;20081;-67
2021/08/06 05:25:34;;;;;;;12.48;10.00;;;;;;;14.50;53.57;100226.59;5005677;28;20517;-67
2021/08/06 05:28:05;;;;;;;16.00;10.77;;;;;;;14.66;53.28;100224.63;5026210;28;20030;-68
2021/08/06 05:30:32;;;;;;;13.07;10.00;;;;;;;14.71;53.10;100224.31;5000231;28;20033;-68
2021/08/06 05:32:57;;;;;;;13.65;9.85;;;;;;;14.86;52.01;100217.19;5013761;28;20037;-67
2021/08/06 05:35:26;;;;;;;15.70;8.93;;;;;;;15.30;51.04;100235.16;5027770;28;20442;-67
2021/08/06 05:37:55;;;;;;;13.75;9.43;;;;;;;15.49;50.70;100224.19;5009868;28;20060;-66
2021/08/06 05:40:21;;;;;;;14.55;9.35;;;;;;;17.31;46.31;100214.13;5009921;28;20038;-67
2021/08/06 05:42:47;;;;;;;13.63;9.82;;;;;;;18.61;43.37;100223.03;5019934;28;20034;-66
2021/08/06 05:45:13;;;;;;;12.55;8.27;;;;;;;19.50;40.28;100220.66;5013646;28;20121;-67
2021/08/06 05:47:46;;;;;;;8.55;7.43;;;;;;;19.21;40.79;100233.81;5011991;28;20044;-67
2021/08/06 05:50:13;;;;;;;9.35;7.28;;;;;;;20.23;39.23;100223.03;5007154;28;20121;-66
2021/08/06 05:52:41;;;;;;;11.25;7.68;;;;;;;20.29;38.52;100215.34;5012076;28;20374;-68
2021/08/06 05:55:08;;;;;;;8.60;7.13;;;;;;;21.18;37.13;100211.53;4996863;28;20033;-66
2021/08/06 05:57:34;;;;;;;9.30;7.18;;;;;;;21.70;36.41;100213.63;5013644;28;20026;-67
2021/08/06 05:59:59;;;;;;;9.02;7.13;;;;;;;21.88;36.16;100216.31;5012802;28;20042;-68
2021/08/06 06:02:25;;;;;;;8.02;6.90;;;;;;;20.90;37.13;100211.47;5009724;28;20080;-66
2021/08/06 06:04:59;;;;;;;8.55;6.25;;;;;;;18.83;41.27;100214.06;5010265;28;20034;-68
2021/08/06 06:07:25;;;;;;;12.77;6.88;;;;;;;17.12;45.55;100214.75;5011245;28;20510;-67
2021/08/06 06:09:51;;;;;;;7.43;6.72;;;;;;;16.60;47.18;100208.19;5011127;28;20121;-66
2021/08/06 06:12:17;;;;;;;7.63;6.88;;;;;;;17.86;44.47;100206.25;5010592;28;20112;-66
2021/08/06 06:14:44;;;;;;;10.05;7.68;;;;;;;18.93;42.53;100204.41;5013200;28;20460;-66
2021/08/06 06:17:11;;;;;;;8.00;6.68;;;;;;;20.22;39.02;100197.50;5010737;28;20065;-66
2021/08/06 06:19:37;;;;;;;12.73;8.68;;;;;;;20.65;38.49;100204.13;5014891;28;20477;-67
2021/08/06 06:22:06;;;;;;;7.60;6.80;;;;;;;19.99;39.66;100200.38;5015733;28;20048;-67
2021/08/06 06:24:34;;;;;;;10.38;6.65;;;;;;;21.45;37.05;100209.84;5011594;28;20618;-66
2021/08/06 06:27:00;;;;;;;7.65;5.15;;;;;;;22.08;34.72;100204.56;5012258;28;20036;-66
2021/08/06 06:29:27;;;;;;;8.13;5.97;;;;;;;23.85;32.45;100201.50;5010320;28;20026;-65
2021/08/06 06:31:54;;;;;;;10.55;5.90;;;;;;;23.33;32.96;100200.72;5013840;28;20037;-67
2021/08/06 06:34:20;;;;;;;8.05;5.78;;;;;;;23.42;32.86;100204.25;5020641;28;20025;-67
2021/08/06 06:36:45;;;;;;;8.13;6.18;;;;;;;24.20;31.85;100206.53;5017296;28;20033;-66
2021/08/06 06:39:11;;;;;;;18.75;10.52;;;;;;;24.39;31.13;100197.38;5015591;28;20041;-66
2021/08/06 06:41:37;;;;;;;10.13;7.63;;;;;;;24.11;32.05;100188.88;5016791;28;20116;-68
2021/08/06 06:44:10;;;;;;;6.18;5.55;;;;;;;24.16;31.72;100183.84;5000529;28;20037;-66
2021/08/06 06:46:35;;;;;;;9.63;5.22;;;;;;;23.81;32.61;100193.84;5013993;28;20053;-66
2021/08/06 06:49:01;;;;;;;5.88;4.97;;;;;;;23.85;33.27;100198.81;5019204;28;20088;-67
2021/08/06 06:51:27;;;;;;;6.63;5.57;;;;;;;22.98;34.25;100194.53;5012747;28;20403;-68
2021/08/06 06:53:53;;;;;;;9.88;6.13;;;;;;;23.24;34.40;100198.97;5018109;28;20026;-69
2021/08/06 06:56:18;;;;;;;7.93;4.95;;;;;;;23.28;33.84;100186.22;5015357;28;20033;-67
2021/08/06 06:58:44;;;;;;;6.05;5.00;;;;;;;22.85;34.12;100195.97;5003810;28;20033;-66
2021/08/06 07:01:09;;;;;;;5.93;4.53;;;;;;;23.27;33.58;100193.34;5013471;28;20066;-69
2021/08/06 07:03:35;;;;;;;4.47;4.07;;;;;;;23.26;34.05;100199.66;5006437;28;20021;-70
2021/08/06 07:06:02;;;;;;;5.60;3.90;;;;;;;23.29;33.58;100199.34;5031883;28;20079;-69
2021/08/06 07:08:28;;;;;;;3.92;3.63;;;;;;;25.03;31.80;100200.09;5030065;28;20467;-68
2021/08/06 07:10:54;;;;;;;5.00;3.17;;;;;;;26.08;31.34;100210.41;5013713;28;20387;-68
2021/08/06 07:13:20;;;;;;;7.40;3.40;;;;;;;25.94;29.61;100208.50;5016506;28;20087;-67
2021/08/06 07:15:46;;;;;;;4.15;3.63;;;;;;;24.43;32.99;100201.38;5016297;28;20484;-67
2021/08/06 07:18:13;;;;;;;4.10;3.72;;;;;;;22.25;35.87;100202.88;5016816;28;20038;-67
2021/08/06 07:20:39;;;;;;;5.03;4.30;;;;;;;20.95;38.44;100203.06;5000095;28;20057;-66
2021/08/06 07:23:05;;;;;;;4.78;4.32;;;;;;;20.02;40.28;100213.38;5016534;28;20041;-67
2021/08/06 07:25:31;;;;;;;4.85;4.45;;;;;;;20.11;40.90;100201.94;5016826;28;20022;-68
2021/08/06 07:28:04;;;;;;;4.88;3.75;;;;;;;20.69;40.14;100201.03;5002405;28;20025;-66
2021/08/06 07:30:30;;;;;;;5.85;4.00;;;;;;;21.31;38.20;100196.06;5013093;28;20124;-67
2021/08/06 07:32:57;;;;;;;4.57;3.85;;;;;;;21.47;38.27;100202.56;5011732;28;20578;-68
2021/08/06 07:35:24;;;;;;;4.07;3.67;;;;;;;21.65;38.03;100203.47;5011583;28;20316;-67
2021/08/06 07:37:49;;;;;;;5.68;3.85;;;;;;;22.17;36.15;100198.31;5014676;28;20030;-66
2021/08/06 07:40:15;;;;;;;5.07;3.40;;;;;;;23.22;35.15;100200.97;5017960;28;20143;-68
2021/08/06 07:42:41;;;;;;;3.80;3.38;;;;;;;23.70;34.22;100196.81;5015028;28;20030;-67
2021/08/06 07:45:08;;;;;;;5.03;4.40;;;;;;;22.88;35.10;100196.50;5013045;28;20038;-67
2021/08/06 07:47:33;;;;;;;3.50;3.20;;;;;;;22.29;36.34;100200.72;5015926;28;20038;-67
2021/08/06 07:50:00;;;;;;;4.82;4.00;;;;;;;22.94;35.77;100203.84;5028557;28;20033;-66
2021/08/06 07:52:25;;;;;;;5.38;3.83;;;;;;;24.03;33.24;100196.84;5011569;28;20029;-66
2021/08/06 07:54:51;;;;;;;6.40;4.18;;;;;;;24.15;33.56;100195.53;5021624;28;20061;-71
2021/08/06 07:57:17;;;;;;;4.72;3.10;;;;;;;24.78;33.46;100193.16;5018233;28;20060;-68
2021/08/06 07:59:43;;;;;;;3.85;3.25;;;;;;;23.90;34.32;100193.84;5021260;28;20037;-69
2021/08/06 08:02:08;;;;;;;6.47;4.00;;;;;;;22.64;35.54;100193.66;5015692;28;20041;-66
2021/08/06 08:04:34;;;;;;;4.03;3.72;;;;;;;21.84;37.27;100191.00;5023197;28;20121;-67
2021/08/06 08:07:02;;;;;;;4.03;3.63;;;;;;;21.45;38.11;100199.22;4996752;28;20030;-68
2021/08/06 08:09:28;;;;;;;5.32;3.33;;;;;;;22.22;38.20;100194.34;5016737;28;20040;-70
2021/08/06 08:11:54;;;;;;;4.95;3.78;;;;;;;22.94;35.40;100193.19;5013129;28;20030;-67
2021/08/06 08:14:19;;;;;;;6.18;3.63;;;;;;;25.31;32.54;100196.97;5029007;28;20044;-67
2021/08/06 08:16:45;;;;;;;3.60;3.15;;;;;;;26.69;29.26;100190.78;5012682;28;20175;-69
2021/08/06 08:19:11;;;;;;;5.00;3.90;;;;;;;25.86;30.47;100189.81;5021878;28;20418;-66
2021/08/06 08:21:37;;;;;;;5.78;4.13;;;;;;;24.97;31.62;100192.78;5011395;28;20516;-67
2021/08/06 08:24:03;;;;;;;3.47;3.13;;;;;;;24.00;34.33;100202.53;5015040;28;20030;-67
2021/08/06 08:26:29;;;;;;;3.65;3.28;;;;;;;23.86;34.42;100197.88;5010556;28;20540;-66
2021/08/06 08:28:55;;;;;;;4.90;3.10;;;;;;;22.88;35.44;100191.16;5013794;28;20595;-67
2021/08/06 08:31:21;;;;;;;7.35;3.25;;;;;;;22.44;35.94;100183.19;5012429;28;20037;-69
2021/08/06 08:33:47;;;;;;;6.43;3.53;;;;;;;23.10;35.80;100194.28;5012794;28;20033;-68
2021/08/06 08:36:14;;;;;;;3.35;3.03;;;;;;;23.94;34.82;100181.84;5015468;28;20074;-68
2021/08/06 08:38:40;;;;;;;4.20;3.58;;;;;;;24.61;33.26;100174.47;5025396;28;20025;-71
2021/08/06 08:41:06;;;;;;;3.33;2.83;;;;;;;26.89;29.97;100174.97;5043314;28;20052;-71
2021/08/06 08:43:32;;;;;;;3.35;2.83;;;;;;;28.28;27.11;100175.69;5027365;28;20025;-66
2021/08/06 08:45:58;;;;;;;4.38;3.63;;;;;;;29.77;25.38;100175.16;5016261;28;20044;-67
2021/08/06 08:48:24;;;;;;;4.38;3.22;;;;;;;30.08;24.61;100173.72;5012162;28;20113;-67
2021/08/06 08:50:53;;;;;;;3.55;2.40;;;;;;;29.07;25.88;100169.09;4996594;28;20168;-67
2021/08/06 08:53:20;;;;;;;2.77;2.50;;;;;;;28.60;26.58;100173.41;5031631;28;20045;-69
2021/08/06 08:55:46;;;;;;;4.57;3.05;;;;;;;25.71;30.67;100181.72;5018213;28;20022;-67
2021/08/06 08:58:13;;;;;;;4.25;2.75;;;;;;;24.54;32.53;100170.81;5010808;28;20033;-67
2021/08/06 09:00:41;;;;;;;2.47;2.25;;;;;;;24.46;33.27;100175.34;5031639;28;20407;-69
2021/08/06 09:03:07;;;;;;;3.17;2.55;;;;;;;23.41;34.79;100173.25;5015157;28;20029;-69
2021/08/06 09:05:33;;;;;;;2.17;1.85;;;;;;;23.37;35.28;100180.72;5029517;28;20383;-69
2021/08/06 09:08:17;;;;;;;6.72;2.25;;;;;;;22.86;36.36;100177.16;5016619;28;20398;-68
2021/08/06 09:11:31;;;;;;;5.82;2.83;;;;;;;22.85;37.00;100179.97;5006072;28;20049;-67
2021/08/06 09:14:24;;;;;;;5.03;2.60;;;;;;;22.79;36.78;100184.13;5029807;28;20462;-66
2021/08/06 09:17:10;;;;;;;3.15;2.58;;;;;;;22.91;35.78;100185.50;5013469;28;20033;-67
2021/08/06 09:19:38;;;;;;;4.53;3.50;;;;;;;22.16;37.26;100185.19;5014631;28;20033;-68
2021/08/06 09:22:25;;;;;;;3.50;2.22;;;;;;;22.38;37.62;100178.50;5015079;28;20103;-67
2021/08/06 09:25:13;;;;;;;3.60;2.95;;;;;;;22.41;37.24;100182.69;5014193;28;20041;-67
2021/08/06 09:27:47;;;;;;;5.00;3.13;;;;;;;22.05;38.32;100193.34;5014130;28;20056;-69
2021/08/06 09:30:14;;;;;;;5.00;3.60;;;;;;;22.20;37.99;100191.00;5018915;28;20033;-66
2021/08/06 09:32:46;;;;;;;4.43;2.50;;;;;;;22.40;37.43;100189.81;5011147;28;20172;-69
2021/08/06 09:35:20;;;;;;;6.57;3.00;;;;;;;22.22;37.67;100183.72;5009710;28;20037;-67
2021/08/06 09:37:45;;;;;;;6.07;2.85;;;;;;;21.63;39.58;100184.16;5014316;28;20033;-67
2021/08/06 09:40:13;;;;;;;3.42;3.13;;;;;;;20.67;40.76;100186.25;5014342;28;20044;-66
2021/08/06 09:42:51;;;;;;;5.72;3.13;;;;;;;20.63;41.30;100184.84;5013910;28;20025;-67
2021/08/06 09:45:17;;;;;;;4.32;2.67;;;;;;;20.82;42.18;100182.13;5014879;28;20041;-68
2021/08/06 09:47:45;;;;;;;2.92;2.50;;;;;;;20.79;43.48;100185.06;5012153;28;20106;-68
2021/08/06 09:50:18;;;;;;;4.38;3.05;;;;;;;20.88;42.44;100178.91;5010095;28;20176;-66
2021/08/06 09:52:49;;;;;;;3.35;3.03;;;;;;;20.88;43.16;100176.25;5010780;28;20126;-66
2021/08/06 09:55:35;;;;;;;3.33;2.90;;;;;;;20.92;42.62;100172.31;5012071;28;20030;-69
2021/08/06 09:58:06;;;;;;;6.20;2.78;;;;;;;20.89;42.75;100164.66;5012512;28;20486;-69
2021/08/06 10:00:32;;;;;;;5.63;3.17;;;;;;;20.96;42.73;100172.88;5015144;28;20440;-68
2021/08/06 10:02:58;;;;;;;5.25;4.00;;;;;;;21.02;41.79;100166.13;5012778;28;20093;-68
2021/08/06 10:05:26;;;;;;;4.90;3.15;;;;;;;21.61;40.55;100164.03;5011366;28;20034;-68
2021/08/06 10:07:55;;;;;;;4.10;3.17;;;;;;;22.30;39.75;100163.31;5014034;28;20034;-66
2021/08/06 10:10:32;;;;;;;6.30;3.65;;;;;;;22.14;39.60;100161.38;5012336;28;20041;-68
2021/08/06 10:13:00;;;;;;;5.20;3.53;;;;;;;21.39;41.02;100162.59;5013044;28;20124;-66
2021/08/06 10:15:26;;;;;;;3.38;2.60;;;;;;;21.93;39.86;100161.66;5010344;28;20574;-66
2021/08/06 10:17:54;;;;;;;6.15;4.07;;;;;;;22.25;39.44;100152.31;5015727;28;20026;-68
2021/08/06 10:20:23;;;;;;;5.20;3.47;;;;;;;22.03;39.34;100150.94;5012836;28;20033;-69
2021/08/06 10:22:50;;;;;;;4.78;3.95;;;;;;;22.77;37.79;100152.31;5014643;28;20106;-66
2021/08/06 10:25:17;;;;;;;5.32;3.22;;;;;;;22.92;38.44;100147.22;5012197;28;20029;-68
2021/08/06 10:27:45;;;;;;;6.10;3.00;;;;;;;22.43;38.34;100148.75;5013819;28;20041;-67
2021/08/06 10:30:26;;;;;;;3.70;3.35;;;;;;;21.82;39.91;100145.91;5011553;28;20046;-66
2021/08/06 10:33:11;;;;;;;4.25;3.25;;;;;;;21.27;40.89;100157.50;5013401;28;20214;-68
2021/08/06 10:35:47;;;;;;;3.50;3.15;;;;;;;21.33;40.53;100158.69;5011094;28;20045;-66
2021/08/06 10:38:15;;;;;;;5.75;3.58;;;;;;;21.12;40.75;100153.66;5008937;28;20081;-67
2021/08/06 10:40:41;;;;;;;5.40;4.68;;;;;;;20.83;41.13;100146.63;5009834;28;20049;-66
2021/08/06 10:43:09;;;;;;;4.53;3.28;;;;;;;21.08;41.81;100136.34;5011834;28;20034;-67
2021/08/06 10:45:46;;;;;;;5.13;3.20;;;;;;;21.54;41.07;100139.88;5009712;28;20018;-67
2021/08/06 10:48:30;;;;;;;5.55;4.18;;;;;;;22.05;40.05;100145.44;5007686;28;20030;-67
2021/08/06 10:51:14;;;;;;;6.75;4.13;;;;;;;22.07;39.49;100148.78;5012460;28;20144;-68
2021/08/06 10:53:43;;;;;;;4.40;3.35;;;;;;;22.39;38.24;100138.41;5010518;28;20522;-67
2021/08/06 10:56:18;;;;;;;3.95;3.42;;;;;;;22.46;38.33;100138.63;5014886;28;20083;-66
2021/08/06 10:58:52;;;;;;;5.78;3.97;;;;;;;22.15;39.06;100130.25;5008872;28;20439;-68
2021/08/06 11:01:34;;;;;;;4.50;3.75;;;;;;;22.41;39.05;100127.63;5024279;28;20037;-68
2021/08/06 11:04:14;;;;;;;8.32;4.75;;;;;;;21.92;39.20;100127.25;5011745;28;20046;-68
2021/08/06 11:06:41;;;;;;;5.05;3.90;;;;;;;21.55;39.31;100142.34;5011573;28;20034;-66
2021/08/06 11:09:32;;;;;;;6.50;4.43;;;;;;;21.00;40.97;100133.56;5008697;28;20616;-70
2021/08/06 11:12:11;;;;;;;5.40;4.78;;;;;;;20.83;42.42;100133.34;5008281;28;20073;-68
2021/08/06 11:14:40;;;;;;;8.02;5.28;;;;;;;19.93;45.30;100132.00;5010729;28;20495;-68
2021/08/06 11:17:05;;;;;;;7.32;5.85;;;;;;;18.97;47.11;100144.94;5010406;28;20038;-68
2021/08/06 11:19:38;;;;;;;6.57;5.15;;;;;;;18.71;47.94;100130.44;5017210;28;20040;-67
2021/08/06 11:22:07;;;;;;;5.97;5.47;;;;;;;18.77;48.70;100135.22;5015269;28;20029;-68
2021/08/06 11:25:06;;;;;;;4.95;4.18;;;;;;;18.91;48.50;100139.34;5018089;28;20402;-67
2021/08/06 11:27:39;;;;;;;5.38;4.97;;;;;;;18.68;49.71;100153.56;5012479;28;20492;-67